Time;durP1;ratioP1;P1;durP2;ratioP2;P2;SDS_P1;SDS_P2;PMS_P1;PMS_P2;Temp;Humidity;BMP_temperature;BMP_pressure;BME280_temperature;BME280_humidity;BME280_pressure;Samples;Min_cycle;Max_cycle;Signal;HPM_P1;HPM_P2
2023/01/05 00:01:54;;;;;;;43.00;25.40;;;;;;;0.03;100.00;97930.30;108067;1263;68379;-64
2023/01/05 00:04:24;;;;;;;43.60;23.80;;;;;;;0.04;100.00;97926.34;108032;1263;69905;-64
2023/01/05 00:06:53;;;;;;;49.60;27.00;;;;;;;0.07;100.00;97923.20;108045;1264;58899;-64
2023/01/05 00:09:23;;;;;;;45.90;24.60;;;;;;;0.07;100.00;97920.44;107995;1262;58893;-64
2023/01/05 00:23:08;;;;;;;37.90;23.00;;;;;;;-0.20;100.00;97914.35;108086;1260;58933;-65
2023/01/05 00:25:39;;;;;;;36.00;22.30;;;;;;;-0.24;100.00;97910.00;108020;1260;70425;-65
2023/01/05 00:28:09;;;;;;;36.80;21.10;;;;;;;-0.28;100.00;97910.76;107993;1256;69398;-65
2023/01/05 00:30:46;;;;;;;33.60;20.80;;;;;;;-0.32;100.00;97906.73;108009;1262;68370;-65
2023/01/05 00:33:16;;;;;;;41.40;20.00;;;;;;;-0.32;100.00;97905.03;108053;1263;58952;-64
2023/01/05 00:35:45;;;;;;;35.20;19.30;;;;;;;-0.33;100.00;97904.00;108028;1263;59000;-65
2023/01/05 00:38:15;;;;;;;35.00;17.80;;;;;;;-0.31;100.00;97903.98;108048;1259;71090;-64
2023/01/05 00:40:44;;;;;;;39.80;21.80;;;;;;;-0.30;100.00;97902.74;108024;1260;69240;-64
2023/01/05 00:43:13;;;;;;;38.70;20.00;;;;;;;-0.29;100.00;97902.04;107978;1265;68989;-64
2023/01/05 00:45:43;;;;;;;28.20;16.50;;;;;;;-0.29;100.00;97894.67;108003;1260;58966;-64
2023/01/05 00:48:12;;;;;;;26.10;17.00;;;;;;;-0.28;100.00;97893.29;108031;1259;58843;-64
2023/01/05 00:50:42;;;;;;;37.90;21.00;;;;;;;-0.26;100.00;97895.48;108041;1262;70533;-65
2023/01/05 00:53:11;;;;;;;33.60;18.50;;;;;;;-0.26;100.00;97884.84;108018;1263;68581;-64
2023/01/05 00:55:41;;;;;;;33.60;21.40;;;;;;;-0.24;100.00;97882.23;108013;1264;69223;-63
2023/01/05 00:58:10;;;;;;;37.70;20.60;;;;;;;-0.24;100.00;97875.55;108035;1264;58891;-64
2023/01/05 01:00:39;;;;;;;38.10;22.10;;;;;;;-0.26;100.00;97873.88;108016;1260;59223;-63
2023/01/05 01:03:15;;;;;;;30.30;18.70;;;;;;;-0.30;100.00;97865.23;108019;1263;70620;-64
2023/01/05 01:05:44;;;;;;;36.00;21.80;;;;;;;-0.33;100.00;97860.52;108031;1260;68518;-64
2023/01/05 01:08:13;;;;;;;35.00;18.70;;;;;;;-0.37;100.00;97860.08;108038;1259;69882;-64
2023/01/05 01:10:43;;;;;;;36.10;20.80;;;;;;;-0.40;100.00;97861.02;108037;1264;58922;-64
2023/01/05 01:13:12;;;;;;;41.30;22.90;;;;;;;-0.42;100.00;97866.53;108059;1264;58925;-64
2023/01/05 01:15:40;;;;;;;27.50;19.90;;;;;;;-0.46;100.00;97874.15;108082;1260;70603;-63
2023/01/05 01:18:11;;;;;;;32.90;20.90;;;;;;;-0.53;100.00;97867.44;108007;1263;69201;-64
2023/01/05 01:20:40;;;;;;;28.10;17.10;;;;;;;-0.57;100.00;97855.20;108024;1259;68374;-64
2023/01/05 01:23:10;;;;;;;25.50;15.40;;;;;;;-0.61;100.00;97856.83;108075;1259;58959;-63
2023/01/05 01:25:39;;;;;;;27.60;17.20;;;;;;;-0.64;100.00;97860.33;108108;1259;58973;-63
2023/01/05 01:28:08;;;;;;;28.60;17.20;;;;;;;-0.67;100.00;97866.04;108001;1263;68767;-64
2023/01/05 01:30:38;;;;;;;29.90;18.20;;;;;;;-0.71;100.00;97867.64;108015;1256;69201;-63
2023/01/05 01:33:08;;;;;;;29.70;17.30;;;;;;;-0.72;100.00;97866.48;108051;1259;69307;-63
2023/01/05 01:35:37;;;;;;;26.80;15.40;;;;;;;-0.72;100.00;97867.18;108005;1263;59055;-64
2023/01/05 01:38:07;;;;;;;26.90;15.70;;;;;;;-0.71;100.00;97862.51;107999;1262;58941;-64
2023/01/05 01:40:41;;;;;;;27.10;14.80;;;;;;;-0.70;100.00;97852.56;108016;1262;71088;-64
2023/01/05 01:43:16;;;;;;;25.60;14.50;;;;;;;-0.68;100.00;97841.60;108047;1263;69534;-66
2023/01/05 01:45:45;;;;;;;60.10;21.30;;;;;;;-0.68;100.00;97830.98;108067;1267;69187;-64
2023/01/05 01:48:17;;;;;;;34.60;18.60;;;;;;;-0.64;100.00;97824.20;108080;1260;58924;-64
2023/01/05 01:50:52;;;;;;;30.90;16.00;;;;;;;-0.61;100.00;97822.58;108018;1263;58934;-65
2023/01/05 01:53:36;;;;;;;37.40;18.70;;;;;;;-0.58;100.00;97815.16;108086;1264;70620;-63
2023/01/05 01:56:10;;;;;;;33.70;17.70;;;;;;;-0.53;100.00;97806.84;108098;1259;68759;-64
2023/01/05 01:58:39;;;;;;;26.40;15.20;;;;;;;-0.49;100.00;97809.52;108065;1259;69266;-64
2023/01/05 02:01:10;;;;;;;;;;;;;;;-0.46;100.00;97810.11;108044;1259;58887;-64
2023/01/05 02:03:40;;;;;;;;;;;;;;;-0.42;100.00;97810.02;108088;1263;58963;-64
2023/01/05 02:06:11;;;;;;;22.60;11.80;;;;;;;-0.42;100.00;97806.75;108070;1263;69716;-64
2023/01/05 02:08:41;;;;;;;31.30;15.60;;;;;;;-0.40;100.00;97805.17;108069;1260;69011;-64
2023/01/05 02:11:42;;;;;;;21.40;12.40;;;;;;;-0.36;100.00;97801.67;108099;1264;69723;-64
2023/01/05 02:14:34;;;;;;;24.70;13.20;;;;;;;-0.30;100.00;97793.15;108089;1260;58945;-64
2023/01/05 02:17:24;;;;;;;26.60;14.80;;;;;;;-0.22;100.00;97787.14;108013;1263;58956;-64
2023/01/05 02:20:21;;;;;;;37.50;16.30;;;;;;;-0.15;100.00;97783.88;108015;1262;70628;-64
2023/01/05 02:23:09;;;;;;;30.90;15.30;;;;;;;-0.14;100.00;97780.08;108045;1264;68381;-64
2023/01/05 02:25:41;;;;;;;21.60;11.60;;;;;;;-0.12;100.00;97767.85;107996;1250;68655;-64
2023/01/05 02:28:42;;;;;;;20.20;11.90;;;;;;;-0.08;100.00;97759.72;108021;1259;58974;-64
2023/01/05 02:31:29;;;;;;;24.80;14.10;;;;;;;-0.06;100.00;97754.86;108075;1264;58959;-64
2023/01/05 02:34:12;;;;;;;23.20;13.70;;;;;;;-0.05;100.00;97756.89;108046;1263;71192;-64
2023/01/05 02:36:59;;;;;;;26.50;16.10;;;;;;;-0.07;100.00;97746.48;108068;1264;67840;-64
2023/01/05 02:39:45;;;;;;;30.00;14.20;;;;;;;-0.10;100.00;97745.02;108039;1263;69255;-64
2023/01/05 02:42:28;;;;;;;24.90;13.50;;;;;;;-0.11;100.00;97741.95;108040;1264;58963;-64
2023/01/05 02:45:03;;;;;;;24.50;13.70;;;;;;;-0.10;100.00;97730.80;108036;1264;59302;-64
2023/01/05 02:47:42;;;;;;;23.90;13.80;;;;;;;-0.07;100.00;97727.28;108073;1262;70609;-64
2023/01/05 02:50:45;;;;;;;23.30;13.60;;;;;;;-0.05;100.00;97721.27;108056;1263;68304;-64
2023/01/05 02:53:21;;;;;;;20.00;13.30;;;;;;;-0.06;100.00;97724.88;108068;1259;68751;-64
2023/01/05 02:56:05;;;;;;;26.50;14.70;;;;;;;-0.07;100.00;97725.73;107986;1263;59009;-64
2023/01/05 02:58:47;;;;;;;25.90;14.80;;;;;;;-0.05;100.00;97724.67;108044;1264;58960;-64
2023/01/05 03:01:26;;;;;;;27.50;15.20;;;;;;;-0.02;100.00;97715.52;108038;1260;70590;-64
2023/01/05 03:04:05;;;;;;;22.90;13.10;;;;;;;0.02;100.00;97700.68;108052;1259;68327;-64
2023/01/05 03:06:45;;;;;;;29.30;16.40;;;;;;;0.08;100.00;97698.14;108000;1263;69343;-64
2023/01/05 03:09:19;;;;;;;26.50;15.20;;;;;;;0.14;100.00;97687.17;108010;1260;58925;-64
2023/01/05 03:15:00;;;;;;;26.90;14.30;;;;;;;0.18;100.00;97672.48;108026;1264;69752;-64
2023/01/05 03:17:41;;;;;;;32.60;15.80;;;;;;;0.19;100.00;97669.91;108049;1264;69401;-64
2023/01/05 03:20:12;;;;;;;;;;;;;;;0.20;100.00;97662.33;108067;1260;69247;-64
2023/01/05 03:35:29;;;;;;;24.10;12.50;;;;;;;0.39;100.00;97659.23;108058;1263;68949;-64
2023/01/05 03:38:02;;;;;;;21.00;12.80;;;;;;;0.45;100.00;97652.38;108074;1256;58943;-64
2023/01/05 03:40:36;;;;;;;26.50;14.30;;;;;;;0.50;100.00;97651.89;108010;1264;58847;-64
2023/01/05 03:43:06;;;;;;;26.80;13.20;;;;;;;0.54;100.00;97647.30;108027;1263;70531;-64
2023/01/05 03:45:41;;;;;;;22.90;13.00;;;;;;;0.59;100.00;97643.56;108009;1260;69260;-64
2023/01/05 03:48:13;;;;;;;22.70;12.50;;;;;;;0.62;100.00;97637.29;108024;1262;69914;-64
2023/01/05 03:50:43;;;;;;;24.70;12.30;;;;;;;0.65;100.00;97629.83;108023;1264;59205;-64
2023/01/05 03:53:15;;;;;;;20.20;11.40;;;;;;;0.67;100.00;97626.52;108055;1260;58942;-64
2023/01/05 03:55:45;;;;;;;20.00;13.80;;;;;;;0.67;100.00;97621.19;108013;1263;71236;-64
2023/01/05 03:58:14;;;;;;;23.40;13.60;;;;;;;0.68;100.00;97611.89;108049;1263;69463;-64
2023/01/05 04:00:48;;;;;;;25.20;13.60;;;;;;;0.69;100.00;97600.55;108045;1264;69713;-64
2023/01/05 04:03:19;;;;;;;24.90;14.90;;;;;;;0.70;100.00;97598.80;108004;1264;58995;-64
2023/01/05 04:05:56;;;;;;;25.20;16.20;;;;;;;0.73;100.00;97604.90;108058;1263;58857;-64
2023/01/05 04:08:28;;;;;;;26.90;15.60;;;;;;;0.74;100.00;97612.94;108007;1264;70611;-64
2023/01/05 04:11:20;;;;;;;25.90;14.20;;;;;;;0.75;100.00;97603.80;108028;1263;69190;-64
2023/01/05 04:14:00;;;;;;;22.60;13.70;;;;;;;0.78;100.00;97598.40;108027;1263;68249;-64
2023/01/05 04:16:31;;;;;;;24.80;13.50;;;;;;;0.81;100.00;97596.23;107960;1267;58891;-64
2023/01/05 04:19:06;;;;;;;23.00;14.20;;;;;;;0.84;100.00;97587.40;108034;1260;58893;-65
2023/01/05 04:21:37;;;;;;;20.70;13.10;;;;;;;0.86;100.00;97584.26;108055;1260;70645;-64
2023/01/05 04:24:09;;;;;;;25.00;15.60;;;;;;;0.88;100.00;97579.38;108011;1265;69226;-64
2023/01/05 04:26:41;;;;;;;23.40;13.60;;;;;;;0.89;100.00;97567.34;107999;1267;69292;-65
2023/01/05 04:29:11;;;;;;;20.90;12.50;;;;;;;0.91;100.00;97563.49;108001;1260;58941;-64
2023/01/05 04:31:41;;;;;;;21.30;13.70;;;;;;;0.93;100.00;97558.13;108044;1261;58925;-64
2023/01/05 04:34:10;;;;;;;23.60;13.90;;;;;;;0.94;100.00;97561.68;108016;1264;71207;-64
2023/01/05 04:36:40;;;;;;;17.80;12.20;;;;;;;0.96;100.00;97561.61;108050;1263;68168;-65
2023/01/05 04:39:16;;;;;;;25.10;14.00;;;;;;;0.97;100.00;97563.98;108069;1260;69309;-65
2023/01/05 04:41:47;;;;;;;19.40;12.50;;;;;;;0.98;100.00;97566.03;107986;1264;58914;-64
2023/01/05 04:44:19;;;;;;;21.50;13.60;;;;;;;0.97;100.00;97565.36;108026;1259;58912;-64
2023/01/05 04:46:49;;;;;;;21.30;14.50;;;;;;;0.98;100.00;97567.23;108041;1264;71168;-65
2023/01/05 04:49:19;;;;;;;22.80;13.50;;;;;;;0.98;100.00;97562.44;108048;1264;69798;-64
2023/01/05 04:51:51;;;;;;;19.90;13.20;;;;;;;0.98;100.00;97555.54;108014;1263;69312;-64
2023/01/05 04:54:22;;;;;;;22.20;12.40;;;;;;;1.00;100.00;97551.86;108046;1263;58957;-63
2023/01/05 04:56:52;;;;;;;22.60;13.80;;;;;;;1.04;100.00;97553.31;107963;1267;58850;-64
2023/01/05 04:59:21;;;;;;;21.60;13.40;;;;;;;1.05;100.00;97551.71;108057;1264;70713;-64
2023/01/05 05:01:53;;;;;;;21.00;12.40;;;;;;;1.07;100.00;97535.54;108040;1260;69809;-64
2023/01/05 05:04:23;;;;;;;27.90;16.90;;;;;;;1.06;100.00;97528.52;108012;1264;69636;-64
2023/01/05 05:06:53;;;;;;;31.90;19.30;;;;;;;1.04;100.00;97528.77;108031;1260;58993;-64
2023/01/05 05:09:24;;;;;;;23.00;16.00;;;;;;;0.99;100.00;97522.58;108016;1261;58823;-64
2023/01/05 05:11:54;;;;;;;26.80;16.90;;;;;;;0.96;100.00;97516.13;108060;1260;70010;-64
2023/01/05 05:14:23;;;;;;;22.90;14.30;;;;;;;0.93;100.00;97516.40;108074;1260;68414;-64
2023/01/05 05:16:54;;;;;;;22.00;14.60;;;;;;;0.90;100.00;97514.27;108042;1264;69726;-64
2023/01/05 05:19:23;;;;;;;22.20;13.10;;;;;;;0.88;100.00;97509.38;108027;1267;58941;-63
2023/01/05 05:21:54;;;;;;;;;;;;;;;0.86;100.00;97516.64;108055;1260;58871;-63
2023/01/05 05:24:25;;;;;;;22.30;12.60;;;;;;;0.84;100.00;97516.02;108027;1259;70432;-64
2023/01/05 05:26:56;;;;;;;19.60;11.40;;;;;;;0.83;100.00;97506.77;108051;1264;69141;-64
2023/01/05 05:29:25;;;;;;;18.80;12.30;;;;;;;0.83;100.00;97500.42;107998;1264;69919;-64
2023/01/05 05:31:54;;;;;;;21.30;13.00;;;;;;;0.85;100.00;97501.39;108033;1259;59308;-64
2023/01/05 05:34:24;;;;;;;19.10;12.50;;;;;;;0.87;100.00;97499.44;108009;1263;58888;-64
2023/01/05 05:36:53;;;;;;;21.40;13.50;;;;;;;0.88;100.00;97502.16;108051;1260;69778;-64
2023/01/05 05:39:22;;;;;;;27.70;16.70;;;;;;;0.90;100.00;97494.02;108026;1259;69892;-64
2023/01/05 05:41:52;;;;;;;23.90;14.30;;;;;;;0.91;100.00;97492.61;108024;1261;69263;-64
2023/01/05 05:44:20;;;;;;;21.40;13.40;;;;;;;0.92;100.00;97492.92;108069;1263;58903;-64
2023/01/05 05:46:49;;;;;;;22.20;13.60;;;;;;;0.93;100.00;97489.30;108071;1260;58849;-64
2023/01/05 05:49:19;;;;;;;20.00;12.40;;;;;;;0.96;100.00;97492.98;108058;1263;71304;-64
2023/01/05 05:51:48;;;;;;;22.90;15.40;;;;;;;0.98;100.00;97493.94;108054;1260;69816;-64
2023/01/05 05:54:17;;;;;;;23.10;14.80;;;;;;;1.01;100.00;97489.52;108017;1256;69248;-64
2023/01/05 05:56:46;;;;;;;24.10;14.70;;;;;;;1.05;100.00;97488.04;108065;1263;58921;-64
2023/01/05 05:59:16;;;;;;;24.30;16.20;;;;;;;1.09;100.00;97486.19;108051;1260;58893;-64
2023/01/05 06:01:44;;;;;;;21.30;14.00;;;;;;;1.13;100.00;97480.73;108027;1259;69810;-64
2023/01/05 06:04:14;;;;;;;20.80;13.60;;;;;;;1.17;100.00;97469.97;108036;1264;69698;-64
2023/01/05 06:06:43;;;;;;;19.70;13.50;;;;;;;1.20;100.00;97473.62;108027;1259;69292;-64
2023/01/05 06:09:13;;;;;;;19.50;13.70;;;;;;;1.24;100.00;97469.70;108028;1264;58908;-64
2023/01/05 06:11:43;;;;;;;21.80;13.80;;;;;;;1.28;100.00;97472.31;108062;1260;58865;-64
2023/01/05 06:14:12;;;;;;;25.80;14.90;;;;;;;1.31;100.00;97467.58;108086;1263;70551;-64
2023/01/05 06:16:40;;;;;;;24.70;15.30;;;;;;;1.33;100.00;97462.17;108001;1264;70017;-64
2023/01/05 06:19:10;;;;;;;22.80;14.30;;;;;;;1.36;100.00;97456.44;108055;1264;69873;-64
2023/01/05 06:21:39;;;;;;;20.70;13.90;;;;;;;1.38;100.00;97457.03;108005;1261;59009;-64
2023/01/05 06:24:08;;;;;;;20.70;14.20;;;;;;;1.39;100.00;97456.47;108046;1264;58957;-64
2023/01/05 06:26:37;;;;;;;23.10;15.30;;;;;;;1.41;100.00;97461.02;108068;1264;70598;-64
2023/01/05 06:29:06;;;;;;;28.20;17.70;;;;;;;1.44;100.00;97458.88;108028;1264;69015;-65
2023/01/05 06:31:35;;;;;;;26.80;16.50;;;;;;;1.46;100.00;97447.65;108005;1263;69269;-65
2023/01/05 06:34:04;;;;;;;20.90;13.70;;;;;;;1.47;100.00;97449.66;108006;1262;58955;-64
2023/01/05 06:36:33;;;;;;;28.00;18.50;;;;;;;1.48;100.00;97449.96;108063;1263;58845;-64
2023/01/05 06:39:03;;;;;;;25.70;17.20;;;;;;;1.51;100.00;97450.91;108042;1259;70606;-64
2023/01/05 06:41:34;;;;;;;26.40;17.70;;;;;;;1.54;100.00;97452.69;108029;1264;69142;-64
2023/01/05 06:44:04;;;;;;;24.30;17.00;;;;;;;1.58;100.00;97454.77;108016;1255;69871;-64
2023/01/05 06:46:33;;;;;;;26.50;17.60;;;;;;;1.63;100.00;97457.52;108028;1259;58975;-66
2023/01/05 06:49:01;;;;;;;25.10;16.30;;;;;;;1.67;100.00;97460.45;108072;1264;58884;-64
2023/01/05 06:51:31;;;;;;;40.50;26.90;;;;;;;1.72;100.00;97460.45;108061;1263;70829;-64
2023/01/05 06:54:00;;;;;;;24.60;17.40;;;;;;;1.75;100.00;97458.95;108035;1263;68787;-64
2023/01/05 06:56:28;;;;;;;22.80;15.50;;;;;;;1.78;100.00;97449.23;108068;1263;69845;-64
2023/01/05 06:58:58;;;;;;;21.40;15.80;;;;;;;1.82;100.00;97447.53;108040;1266;58929;-64
2023/01/05 07:01:26;;;;;;;19.80;14.80;;;;;;;1.86;100.00;97440.34;108048;1264;58890;-64
2023/01/05 07:03:55;;;;;;;21.00;15.10;;;;;;;1.91;100.00;97442.22;108065;1263;70221;-64
2023/01/05 07:06:24;;;;;;;31.30;19.80;;;;;;;1.96;100.00;97443.55;108078;1263;69445;-64
2023/01/05 07:08:53;;;;;;;22.10;15.30;;;;;;;2.02;100.00;97444.89;107997;1261;69868;-64
2023/01/05 07:11:22;;;;;;;20.60;14.70;;;;;;;2.06;100.00;97439.74;108054;1264;58939;-64
2023/01/05 07:13:51;;;;;;;21.30;14.30;;;;;;;2.11;100.00;97439.91;108033;1263;58884;-65
2023/01/05 07:16:19;;;;;;;20.00;13.40;;;;;;;2.15;100.00;97438.76;108061;1260;70432;-65
2023/01/05 07:18:48;;;;;;;22.00;16.30;;;;;;;2.18;100.00;97432.23;108048;1263;69061;-65
2023/01/05 07:21:17;;;;;;;22.50;17.20;;;;;;;2.22;100.00;97426.40;108027;1264;69117;-65
2023/01/05 07:23:46;;;;;;;23.30;17.30;;;;;;;2.26;100.00;97425.90;108039;1263;58978;-65
2023/01/05 07:26:15;;;;;;;25.50;17.60;;;;;;;2.32;100.00;97431.02;108072;1263;58955;-65
2023/01/05 07:28:44;;;;;;;30.80;21.10;;;;;;;2.35;100.00;97437.77;108061;1264;71211;-63
2023/01/05 07:31:12;;;;;;;28.40;20.70;;;;;;;2.38;100.00;97434.90;108079;1263;69636;-64
2023/01/05 07:33:42;;;;;;;28.50;19.50;;;;;;;2.41;100.00;97428.76;108041;1260;69899;-65
2023/01/05 07:36:10;;;;;;;27.10;17.90;;;;;;;2.45;100.00;97425.33;108062;1261;58958;-64
2023/01/05 07:38:40;;;;;;;21.40;15.60;;;;;;;2.49;100.00;97416.20;108111;1264;58864;-64
2023/01/05 07:41:09;;;;;;;20.20;13.60;;;;;;;2.53;100.00;97411.59;108018;1263;71163;-64
2023/01/05 07:43:38;;;;;;;23.30;15.70;;;;;;;2.54;100.00;97401.38;108056;1264;69210;-64
2023/01/05 07:46:07;;;;;;;33.10;21.20;;;;;;;2.56;100.00;97391.35;108041;1264;68708;-64
2023/01/05 07:48:36;;;;;;;32.10;21.30;;;;;;;2.56;100.00;97381.86;108044;1263;58943;-64
2023/01/05 07:51:05;;;;;;;31.10;20.80;;;;;;;2.55;100.00;97383.29;108037;1264;58925;-63
2023/01/05 07:53:37;;;;;;;32.30;21.40;;;;;;;2.54;100.00;97387.79;108106;1264;69903;-64
2023/01/05 07:56:12;;;;;;;31.80;20.80;;;;;;;2.55;100.00;97373.66;108050;1264;69262;-64
2023/01/05 07:58:42;;;;;;;27.60;18.50;;;;;;;2.56;100.00;97369.32;108060;1264;69234;-65
2023/01/05 08:01:13;;;;;;;27.20;21.10;;;;;;;2.60;100.00;97367.79;108064;1263;58913;-65
2023/01/05 08:03:42;;;;;;;28.80;21.20;;;;;;;2.62;100.00;97370.09;108103;1263;59264;-65
2023/01/05 08:06:14;;;;;;;30.90;20.50;;;;;;;2.66;100.00;97367.35;108053;1264;69760;-65
2023/01/05 08:08:44;;;;;;;25.80;19.20;;;;;;;2.72;100.00;97372.08;107714;1263;468628;-65
2023/01/05 08:11:15;;;;;;;28.70;21.30;;;;;;;2.79;100.00;97366.97;108061;1262;69855;-65
2023/01/05 08:13:59;;;;;;;32.80;21.50;;;;;;;2.88;100.00;97361.09;108085;1260;58933;-65
2023/01/05 08:16:32;;;;;;;27.90;20.10;;;;;;;2.98;100.00;97358.23;108023;1264;58903;-65
2023/01/05 08:19:01;;;;;;;31.30;22.10;;;;;;;3.07;100.00;97362.33;108043;1262;70408;-65
2023/01/05 08:21:32;;;;;;;24.70;17.20;;;;;;;3.13;100.00;97352.44;108099;1257;69106;-65
2023/01/05 08:24:01;;;;;;;26.70;18.60;;;;;;;3.19;100.00;97357.16;108035;1264;69232;-65
2023/01/05 08:26:30;;;;;;;20.40;15.20;;;;;;;3.25;100.00;97348.26;108098;1264;58960;-65
2023/01/05 08:28:58;;;;;;;16.00;12.30;;;;;;;3.33;100.00;97335.68;108011;1264;58919;-65
2023/01/05 08:31:30;;;;;;;17.80;13.80;;;;;;;3.43;100.00;97340.05;107985;1264;70811;-65
2023/01/05 08:34:01;;;;;;;20.30;15.50;;;;;;;3.61;100.00;97332.17;108050;1264;69876;-65
2023/01/05 08:36:31;;;;;;;17.60;12.20;;;;;;;3.80;100.00;97340.42;108040;1264;69295;-65
2023/01/05 08:39:00;;;;;;;16.50;12.60;;;;;;;3.93;100.00;97340.85;108030;1264;58921;-65
2023/01/05 08:41:34;;;;;;;13.00;9.00;;;;;;;4.02;99.98;97332.64;108063;1264;58974;-65
2023/01/05 08:44:11;;;;;;;13.90;10.10;;;;;;;4.04;99.67;97322.02;108075;1264;70413;-65
2023/01/05 08:46:40;;;;;;;14.30;10.20;;;;;;;4.15;99.77;97318.59;108060;1263;69049;-66
2023/01/05 08:49:09;;;;;;;14.00;10.90;;;;;;;4.21;100.00;97315.01;108006;1264;68305;-64
2023/01/05 08:51:38;;;;;;;14.50;10.50;;;;;;;4.27;99.97;97311.96;108007;1264;58974;-64
2023/01/05 08:54:07;;;;;;;15.00;10.30;;;;;;;4.31;99.74;97313.83;108033;1264;58912;-64
2023/01/05 08:56:35;;;;;;;12.70;9.60;;;;;;;4.34;98.57;97313.86;108011;1263;71167;-65
2023/01/05 08:59:10;;;;;;;12.40;9.10;;;;;;;4.31;98.22;97312.42;108031;1259;69825;-65
2023/01/05 09:01:39;;;;;;;13.40;9.20;;;;;;;4.35;98.08;97303.13;107997;1264;67527;-65
2023/01/05 09:04:08;;;;;;;13.70;9.10;;;;;;;4.37;98.14;97302.33;108036;1264;58942;-65
2023/01/05 09:06:37;;;;;;;13.40;8.90;;;;;;;4.34;98.83;97295.23;108053;1264;58878;-64
2023/01/05 09:09:06;;;;;;;10.00;7.40;;;;;;;4.45;96.95;97296.73;108061;1263;70915;-65
2023/01/05 09:11:35;;;;;;;10.40;6.90;;;;;;;4.49;96.06;97287.06;108068;1260;69209;-65
2023/01/05 09:14:04;;;;;;;9.40;6.70;;;;;;;4.49;94.93;97285.83;108036;1263;69870;-64
2023/01/05 09:16:33;;;;;;;9.90;7.00;;;;;;;4.51;94.86;97278.13;108104;1263;59299;-65
2023/01/05 09:19:22;;;;;;;11.20;8.10;;;;;;;4.47;95.64;97268.85;108125;1263;58890;-65
2023/01/05 09:21:52;;;;;;;9.70;7.20;;;;;;;4.50;96.15;97265.58;108123;1263;71171;-65
2023/01/05 09:24:21;;;;;;;8.80;6.50;;;;;;;4.50;95.32;97269.20;108049;1264;69906;-64
2023/01/05 09:26:50;;;;;;;10.30;6.80;;;;;;;4.51;95.42;97267.96;108035;1264;69247;-65
2023/01/05 09:29:19;;;;;;;8.40;6.50;;;;;;;4.53;94.75;97266.97;108061;1261;58879;-65
2023/01/05 09:31:47;;;;;;;9.10;5.80;;;;;;;4.55;94.46;97266.58;108067;1263;58901;-64
2023/01/05 09:34:17;;;;;;;7.80;5.70;;;;;;;4.59;94.40;97257.87;108062;1260;70400;-64
2023/01/05 09:36:46;;;;;;;9.30;6.30;;;;;;;4.68;94.41;97252.25;108027;1263;69235;-64
2023/01/05 09:39:15;;;;;;;8.40;6.60;;;;;;;4.74;94.09;97254.36;108076;1264;69856;-64
2023/01/05 09:41:57;;;;;;;9.60;7.00;;;;;;;4.82;94.67;97246.00;108061;1263;58953;-64
2023/01/05 09:44:38;;;;;;;8.10;6.30;;;;;;;4.85;94.38;97225.45;108059;1259;58913;-64
2023/01/05 09:47:24;;;;;;;8.50;6.00;;;;;;;4.87;94.49;97221.23;108038;1263;70597;-64
2023/01/05 09:49:56;;;;;;;8.10;6.30;;;;;;;4.97;93.01;97230.17;108079;1264;69112;-65
2023/01/05 09:52:25;;;;;;;9.90;6.70;;;;;;;5.10;93.48;97209.27;108079;1264;69072;-64
2023/01/05 09:54:56;;;;;;;9.20;7.00;;;;;;;5.29;92.20;97204.78;108070;1263;58961;-64
2023/01/05 09:57:27;;;;;;;8.10;6.80;;;;;;;5.45;90.30;97197.67;108061;1260;58843;-64
2023/01/05 10:00:04;;;;;;;10.90;6.20;;;;;;;5.53;89.83;97177.20;108051;1260;71204;-64
2023/01/05 10:02:41;;;;;;;8.50;5.90;;;;;;;5.55;90.20;97173.08;108029;1264;68752;-64
2023/01/05 10:05:12;;;;;;;8.30;6.10;;;;;;;5.61;89.40;97173.78;107994;1263;69204;-64
2023/01/05 10:07:56;;;;;;;9.30;6.10;;;;;;;5.63;89.08;97171.60;108048;1263;58917;-64
2023/01/05 10:10:37;;;;;;;9.40;6.60;;;;;;;5.59;89.66;97158.68;108095;1264;58900;-64
2023/01/05 10:13:10;;;;;;;;;;;;;;;5.59;89.30;97159.91;108064;1263;69560;-64
2023/01/05 10:15:50;;;;;;;8.80;6.00;;;;;;;5.57;89.12;97148.93;108084;1262;68235;-64
2023/01/05 10:18:28;;;;;;;9.30;6.40;;;;;;;5.55;90.01;97138.89;108058;1264;70036;-64
2023/01/05 10:21:06;;;;;;;8.10;6.20;;;;;;;5.54;90.59;97134.42;108077;1263;58990;-64
2023/01/05 10:23:56;;;;;;;7.50;6.30;;;;;;;5.58;89.86;97136.64;108044;1263;58943;-64
2023/01/05 10:26:29;;;;;;;;;;;;;;;5.57;89.90;97125.64;108081;1264;70690;-65
2023/01/05 10:29:24;;;;;;;7.50;5.80;;;;;;;5.55;90.39;97124.00;108048;1264;69161;-65
2023/01/05 10:32:24;;;;;;;8.70;6.20;;;;;;;5.57;90.47;97122.15;108034;1263;69118;-64
2023/01/05 10:34:58;;;;;;;8.90;6.30;;;;;;;5.60;90.77;97129.04;108043;1264;58964;-64
2023/01/05 10:37:48;;;;;;;9.00;6.10;;;;;;;5.65;91.00;97130.17;108020;1264;58912;-64
2023/01/05 10:40:42;;;;;;;8.20;6.30;;;;;;;5.76;91.15;97128.00;108072;1261;70546;-65
2023/01/05 10:43:19;;;;;;;9.50;6.50;;;;;;;5.84;91.18;97126.66;108086;1263;69220;-64
2023/01/05 10:45:48;;;;;;;7.50;5.50;;;;;;;5.92;90.63;97122.08;108095;1264;69711;-64
2023/01/05 10:48:39;;;;;;;7.80;5.90;;;;;;;6.06;90.95;97124.17;108028;1259;58971;-65
2023/01/05 10:51:08;;;;;;;7.50;5.30;;;;;;;6.33;90.76;97116.36;108068;1264;58950;-64
2023/01/05 10:53:41;;;;;;;8.30;5.80;;;;;;;6.58;88.53;97116.92;108121;1260;70553;-65
2023/01/05 10:56:14;;;;;;;7.30;5.10;;;;;;;6.75;89.20;97108.09;108133;1263;69058;-65
2023/01/05 10:58:45;;;;;;;6.90;5.00;;;;;;;6.89;89.13;97109.27;108034;1263;69793;-65
2023/01/05 11:01:27;;;;;;;5.30;4.40;;;;;;;7.01;87.89;97096.05;108071;1259;59013;-65
2023/01/05 11:04:14;;;;;;;6.00;4.80;;;;;;;7.17;87.30;97095.02;108065;1264;59276;-65
2023/01/05 11:07:03;;;;;;;5.90;4.70;;;;;;;7.32;87.52;97092.13;108066;1263;71130;-65
2023/01/05 11:09:37;;;;;;;12.30;9.60;;;;;;;7.46;85.60;97088.11;108045;1264;68178;-65
2023/01/05 11:12:17;;;;;;;7.60;5.70;;;;;;;7.64;84.52;97086.20;108046;1266;69808;-65
2023/01/05 11:14:52;;;;;;;5.10;4.40;;;;;;;7.79;84.35;97064.95;108022;1266;58904;-65
2023/01/05 11:17:28;;;;;;;11.00;7.60;;;;;;;7.96;83.78;97067.58;108053;1263;58872;-65
2023/01/05 11:19:57;;;;;;;7.60;5.30;;;;;;;8.14;81.72;97056.50;108016;1264;70722;-65
2023/01/05 11:22:43;;;;;;;6.80;4.30;;;;;;;8.12;80.24;97059.02;107973;1263;68686;-65
2023/01/05 11:25:24;;;;;;;9.40;7.00;;;;;;;8.20;79.52;97061.48;108051;1265;68742;-65
2023/01/05 11:28:17;;;;;;;6.90;4.30;;;;;;;8.07;79.04;97079.55;108045;1264;58963;-65
2023/01/05 11:30:46;;;;;;;8.70;7.80;;;;;;;8.09;78.82;97043.48;108112;1264;58944;-65
2023/01/05 11:33:24;;;;;;;5.30;4.30;;;;;;;8.06;79.43;97072.63;108019;1264;71532;-65
2023/01/05 11:35:54;;;;;;;8.80;7.10;;;;;;;7.94;79.62;97055.79;108031;1264;69806;-65
2023/01/05 11:38:29;;;;;;;5.80;4.20;;;;;;;8.03;79.66;97036.77;108046;1263;67831;-64
2023/01/05 11:41:00;;;;;;;5.40;4.20;;;;;;;8.08;80.71;97031.86;108030;1266;58956;-65
2023/01/05 11:43:31;;;;;;;8.60;6.50;;;;;;;8.49;80.41;97024.04;108030;1263;58892;-65
2023/01/05 11:46:03;;;;;;;6.40;5.80;;;;;;;9.17;78.04;97024.56;108068;1264;71693;-65
2023/01/05 11:48:35;;;;;;;4.40;3.50;;;;;;;9.96;77.07;97003.31;108022;1264;69788;-65
2023/01/05 11:51:04;;;;;;;5.30;4.00;;;;;;;10.54;74.50;97002.63;108021;1266;68297;-65
2023/01/05 11:53:32;;;;;;;4.50;3.60;;;;;;;11.26;69.23;97002.25;108045;1267;58889;-65
2023/01/05 11:56:01;;;;;;;5.00;3.30;;;;;;;11.65;67.77;96983.45;108115;1266;58897;-64
2023/01/05 11:58:33;;;;;;;4.40;3.00;;;;;;;11.26;66.39;96995.23;108097;1264;71063;-64
2023/01/05 12:01:39;;;;;;;4.30;3.30;;;;;;;10.86;67.29;96992.05;108075;1263;68996;-64
2023/01/05 12:04:11;;;;;;;5.30;3.80;;;;;;;10.75;69.38;96965.58;108064;1264;69317;-65
2023/01/05 12:07:44;;;;;;;4.60;3.20;;;;;;;10.75;68.54;96984.71;108039;1264;58960;-65
2023/01/05 12:10:39;;;;;;;4.50;3.70;;;;;;;10.95;67.96;96976.21;107483;1273;59007;-65